sensor_id;sensor_type;location;lat;lon;timestamp;P1;durP1;ratioP1;P2;durP2;ratioP2
62202;SDS011;48199;49.138;7.414;2024-01-11T00:00:30;53.72;;;23.10;;
62202;SDS011;48199;49.138;7.414;2024-01-11T00:02:55;37.58;;;17.15;;
62202;SDS011;48199;49.138;7.414;2024-01-11T00:05:20;37.08;;;17.73;;
62202;SDS011;48199;49.138;7.414;2024-01-11T00:07:46;41.10;;;16.73;;
62202;SDS011;48199;49.138;7.414;2024-01-11T00:10:11;29.08;;;15.75;;
62202;SDS011;48199;49.138;7.414;2024-01-11T00:12:37;35.17;;;17.38;;
62202;SDS011;48199;49.138;7.414;2024-01-11T00:15:02;41.78;;;18.83;;
62202;SDS011;48199;49.138;7.414;2024-01-11T00:17:28;35.67;;;17.63;;
62202;SDS011;48199;49.138;7.414;2024-01-11T00:19:53;43.28;;;21.05;;
62202;SDS011;48199;49.138;7.414;2024-01-11T00:22:19;39.50;;;19.38;;
62202;SDS011;48199;49.138;7.414;2024-01-11T00:24:44;46.78;;;22.83;;
62202;SDS011;48199;49.138;7.414;2024-01-11T00:27:09;36.33;;;16.85;;
62202;SDS011;48199;49.138;7.414;2024-01-11T00:29:38;34.58;;;18.38;;
62202;SDS011;48199;49.138;7.414;2024-01-11T00:32:03;40.03;;;20.42;;
62202;SDS011;48199;49.138;7.414;2024-01-11T00:34:28;36.20;;;17.98;;
62202;SDS011;48199;49.138;7.414;2024-01-11T00:36:54;38.80;;;18.90;;
62202;SDS011;48199;49.138;7.414;2024-01-11T00:39:19;43.42;;;19.38;;
62202;SDS011;48199;49.138;7.414;2024-01-11T00:41:44;40.08;;;18.55;;
62202;SDS011;48199;49.138;7.414;2024-01-11T00:44:10;44.70;;;19.02;;
62202;SDS011;48199;49.138;7.414;2024-01-11T00:46:35;39.13;;;18.42;;
62202;SDS011;48199;49.138;7.414;2024-01-11T00:49:01;33.72;;;15.45;;
62202;SDS011;48199;49.138;7.414;2024-01-11T00:51:27;42.13;;;18.27;;
62202;SDS011;48199;49.138;7.414;2024-01-11T00:53:52;36.70;;;18.95;;
62202;SDS011;48199;49.138;7.414;2024-01-11T00:56:18;45.88;;;18.48;;
62202;SDS011;48199;49.138;7.414;2024-01-11T00:58:44;42.05;;;19.13;;
62202;SDS011;48199;49.138;7.414;2024-01-11T01:01:10;39.60;;;19.25;;
62202;SDS011;48199;49.138;7.414;2024-01-11T01:03:36;44.38;;;19.20;;
62202;SDS011;48199;49.138;7.414;2024-01-11T01:06:01;38.50;;;18.08;;
62202;SDS011;48199;49.138;7.414;2024-01-11T01:08:28;30.35;;;15.27;;
62202;SDS011;48199;49.138;7.414;2024-01-11T01:10:53;38.55;;;19.27;;
62202;SDS011;48199;49.138;7.414;2024-01-11T01:13:19;36.05;;;17.20;;
62202;SDS011;48199;49.138;7.414;2024-01-11T01:15:44;32.00;;;16.38;;
62202;SDS011;48199;49.138;7.414;2024-01-11T01:18:10;36.85;;;16.65;;
62202;SDS011;48199;49.138;7.414;2024-01-11T01:20:35;29.73;;;15.88;;
62202;SDS011;48199;49.138;7.414;2024-01-11T01:23:01;33.97;;;15.38;;
62202;SDS011;48199;49.138;7.414;2024-01-11T01:25:26;31.73;;;15.68;;
62202;SDS011;48199;49.138;7.414;2024-01-11T01:27:52;26.90;;;14.48;;
62202;SDS011;48199;49.138;7.414;2024-01-11T01:30:17;32.35;;;14.93;;
62202;SDS011;48199;49.138;7.414;2024-01-11T01:32:43;40.03;;;15.88;;
62202;SDS011;48199;49.138;7.414;2024-01-11T01:35:08;31.60;;;15.95;;
62202;SDS011;48199;49.138;7.414;2024-01-11T01:37:33;30.92;;;14.30;;
62202;SDS011;48199;49.138;7.414;2024-01-11T01:39:59;36.55;;;16.83;;
62202;SDS011;48199;49.138;7.414;2024-01-11T01:42:24;34.33;;;15.40;;
62202;SDS011;48199;49.138;7.414;2024-01-11T01:44:49;34.35;;;14.10;;
62202;SDS011;48199;49.138;7.414;2024-01-11T01:47:15;24.63;;;13.38;;
62202;SDS011;48199;49.138;7.414;2024-01-11T01:49:41;39.95;;;16.30;;
62202;SDS011;48199;49.138;7.414;2024-01-11T01:52:08;22.13;;;13.50;;
62202;SDS011;48199;49.138;7.414;2024-01-11T01:54:34;27.92;;;14.43;;
62202;SDS011;48199;49.138;7.414;2024-01-11T01:57:00;23.00;;;12.70;;
62202;SDS011;48199;49.138;7.414;2024-01-11T01:59:27;39.10;;;15.70;;
62202;SDS011;48199;49.138;7.414;2024-01-11T02:01:54;24.00;;;14.10;;
62202;SDS011;48199;49.138;7.414;2024-01-11T02:04:20;29.23;;;15.60;;
62202;SDS011;48199;49.138;7.414;2024-01-11T02:06:46;22.85;;;13.20;;
62202;SDS011;48199;49.138;7.414;2024-01-11T02:09:12;24.25;;;13.05;;
62202;SDS011;48199;49.138;7.414;2024-01-11T02:11:38;24.10;;;12.45;;
62202;SDS011;48199;49.138;7.414;2024-01-11T02:14:05;30.98;;;13.20;;
62202;SDS011;48199;49.138;7.414;2024-01-11T02:16:32;41.35;;;18.27;;
62202;SDS011;48199;49.138;7.414;2024-01-11T02:18:57;29.95;;;14.20;;
62202;SDS011;48199;49.138;7.414;2024-01-11T02:21:22;43.50;;;15.15;;
62202;SDS011;48199;49.138;7.414;2024-01-11T02:26:31;25.88;;;12.65;;
62202;SDS011;48199;49.138;7.414;2024-01-11T02:28:56;29.58;;;14.25;;
62202;SDS011;48199;49.138;7.414;2024-01-11T02:31:22;25.17;;;11.98;;
62202;SDS011;48199;49.138;7.414;2024-01-11T02:33:48;28.25;;;14.63;;
62202;SDS011;48199;49.138;7.414;2024-01-11T02:36:14;25.25;;;14.75;;
62202;SDS011;48199;49.138;7.414;2024-01-11T02:38:41;23.33;;;13.43;;
62202;SDS011;48199;49.138;7.414;2024-01-11T02:41:07;26.58;;;13.02;;
62202;SDS011;48199;49.138;7.414;2024-01-11T02:43:32;27.30;;;14.00;;
62202;SDS011;48199;49.138;7.414;2024-01-11T02:46:00;29.33;;;12.77;;
62202;SDS011;48199;49.138;7.414;2024-01-11T02:48:29;33.58;;;14.73;;
62202;SDS011;48199;49.138;7.414;2024-01-11T02:50:56;28.48;;;12.85;;
62202;SDS011;48199;49.138;7.414;2024-01-11T02:53:22;22.67;;;13.90;;
62202;SDS011;48199;49.138;7.414;2024-01-11T02:55:48;24.45;;;12.38;;
62202;SDS011;48199;49.138;7.414;2024-01-11T02:58:14;28.02;;;12.55;;
62202;SDS011;48199;49.138;7.414;2024-01-11T03:00:39;22.42;;;10.63;;
62202;SDS011;48199;49.138;7.414;2024-01-11T03:03:04;21.13;;;12.32;;
62202;SDS011;48199;49.138;7.414;2024-01-11T03:05:30;24.90;;;12.70;;
62202;SDS011;48199;49.138;7.414;2024-01-11T03:07:56;24.17;;;12.40;;
62202;SDS011;48199;49.138;7.414;2024-01-11T03:10:21;27.58;;;13.45;;
62202;SDS011;48199;49.138;7.414;2024-01-11T03:12:47;24.10;;;10.95;;
62202;SDS011;48199;49.138;7.414;2024-01-11T03:15:14;23.45;;;11.80;;
62202;SDS011;48199;49.138;7.414;2024-01-11T03:17:40;20.23;;;10.20;;
62202;SDS011;48199;49.138;7.414;2024-01-11T03:20:05;24.48;;;11.98;;
62202;SDS011;48199;49.138;7.414;2024-01-11T03:22:31;22.73;;;10.15;;
62202;SDS011;48199;49.138;7.414;2024-01-11T03:24:56;29.10;;;10.77;;
62202;SDS011;48199;49.138;7.414;2024-01-11T03:27:22;23.92;;;11.20;;
62202;SDS011;48199;49.138;7.414;2024-01-11T03:29:47;21.77;;;11.23;;
62202;SDS011;48199;49.138;7.414;2024-01-11T03:32:14;22.88;;;10.73;;
62202;SDS011;48199;49.138;7.414;2024-01-11T03:34:39;22.38;;;10.85;;
62202;SDS011;48199;49.138;7.414;2024-01-11T03:37:05;24.15;;;10.75;;
62202;SDS011;48199;49.138;7.414;2024-01-11T03:39:30;22.00;;;9.85;;
62202;SDS011;48199;49.138;7.414;2024-01-11T03:41:56;25.45;;;12.27;;
62202;SDS011;48199;49.138;7.414;2024-01-11T03:44:21;25.17;;;12.65;;
62202;SDS011;48199;49.138;7.414;2024-01-11T03:46:47;22.00;;;10.52;;
62202;SDS011;48199;49.138;7.414;2024-01-11T03:49:13;18.25;;;9.57;;
62202;SDS011;48199;49.138;7.414;2024-01-11T03:51:39;29.38;;;11.32;;
62202;SDS011;48199;49.138;7.414;2024-01-11T03:54:04;19.20;;;10.85;;
62202;SDS011;48199;49.138;7.414;2024-01-11T03:56:30;23.95;;;10.90;;
62202;SDS011;48199;49.138;7.414;2024-01-11T03:58:55;20.02;;;10.52;;
62202;SDS011;48199;49.138;7.414;2024-01-11T04:01:20;20.40;;;11.20;;
62202;SDS011;48199;49.138;7.414;2024-01-11T04:03:46;26.23;;;13.15;;
62202;SDS011;48199;49.138;7.414;2024-01-11T04:06:23;25.98;;;12.35;;
62202;SDS011;48199;49.138;7.414;2024-01-11T04:08:49;20.42;;;11.70;;
62202;SDS011;48199;49.138;7.414;2024-01-11T04:11:16;20.73;;;10.43;;
62202;SDS011;48199;49.138;7.414;2024-01-11T04:13:42;20.77;;;11.88;;
62202;SDS011;48199;49.138;7.414;2024-01-11T04:16:07;21.10;;;9.98;;
62202;SDS011;48199;49.138;7.414;2024-01-11T04:18:33;22.65;;;11.10;;
62202;SDS011;48199;49.138;7.414;2024-01-11T04:20:58;18.40;;;10.38;;
62202;SDS011;48199;49.138;7.414;2024-01-11T04:23:24;20.90;;;10.88;;
62202;SDS011;48199;49.138;7.414;2024-01-11T04:25:49;21.95;;;11.43;;
62202;SDS011;48199;49.138;7.414;2024-01-11T04:28:16;24.73;;;10.95;;
62202;SDS011;48199;49.138;7.414;2024-01-11T04:30:42;19.58;;;11.23;;
62202;SDS011;48199;49.138;7.414;2024-01-11T04:33:07;21.00;;;10.50;;
62202;SDS011;48199;49.138;7.414;2024-01-11T04:35:33;22.05;;;10.07;;
62202;SDS011;48199;49.138;7.414;2024-01-11T04:37:58;18.92;;;9.00;;
62202;SDS011;48199;49.138;7.414;2024-01-11T04:40:24;17.73;;;10.10;;
62202;SDS011;48199;49.138;7.414;2024-01-11T04:42:49;18.95;;;10.25;;
62202;SDS011;48199;49.138;7.414;2024-01-11T04:45:14;24.40;;;10.18;;
62202;SDS011;48199;49.138;7.414;2024-01-11T04:47:40;24.08;;;10.00;;
62202;SDS011;48199;49.138;7.414;2024-01-11T04:50:06;18.58;;;10.05;;
62202;SDS011;48199;49.138;7.414;2024-01-11T04:52:32;21.42;;;10.05;;
62202;SDS011;48199;49.138;7.414;2024-01-11T04:54:57;21.27;;;10.32;;
62202;SDS011;48199;49.138;7.414;2024-01-11T04:57:22;20.35;;;9.63;;
62202;SDS011;48199;49.138;7.414;2024-01-11T04:59:48;21.38;;;10.07;;
62202;SDS011;48199;49.138;7.414;2024-01-11T05:02:13;20.80;;;10.57;;
62202;SDS011;48199;49.138;7.414;2024-01-11T05:04:38;14.82;;;8.23;;
62202;SDS011;48199;49.138;7.414;2024-01-11T05:07:04;26.90;;;11.38;;
62202;SDS011;48199;49.138;7.414;2024-01-11T05:09:29;20.65;;;9.75;;
62202;SDS011;48199;49.138;7.414;2024-01-11T05:11:54;26.42;;;10.63;;
62202;SDS011;48199;49.138;7.414;2024-01-11T05:14:20;25.00;;;11.93;;
62202;SDS011;48199;49.138;7.414;2024-01-11T05:16:45;20.33;;;10.52;;
62202;SDS011;48199;49.138;7.414;2024-01-11T05:19:11;27.10;;;10.52;;
62202;SDS011;48199;49.138;7.414;2024-01-11T05:21:36;16.20;;;9.48;;
62202;SDS011;48199;49.138;7.414;2024-01-11T05:24:01;18.63;;;9.57;;
62202;SDS011;48199;49.138;7.414;2024-01-11T05:26:27;16.50;;;9.40;;
62202;SDS011;48199;49.138;7.414;2024-01-11T05:28:52;22.35;;;9.82;;
62202;SDS011;48199;49.138;7.414;2024-01-11T05:31:17;22.83;;;11.88;;
62202;SDS011;48199;49.138;7.414;2024-01-11T05:33:43;20.77;;;10.20;;
62202;SDS011;48199;49.138;7.414;2024-01-11T05:36:08;26.65;;;12.40;;
62202;SDS011;48199;49.138;7.414;2024-01-11T05:38:34;21.27;;;11.80;;
62202;SDS011;48199;49.138;7.414;2024-01-11T05:41:00;22.40;;;10.63;;
62202;SDS011;48199;49.138;7.414;2024-01-11T05:43:25;17.48;;;9.73;;
62202;SDS011;48199;49.138;7.414;2024-01-11T05:45:51;21.75;;;9.63;;
62202;SDS011;48199;49.138;7.414;2024-01-11T05:48:16;20.02;;;10.98;;
62202;SDS011;48199;49.138;7.414;2024-01-11T05:50:42;22.02;;;9.93;;
62202;SDS011;48199;49.138;7.414;2024-01-11T05:53:09;24.55;;;11.13;;
62202;SDS011;48199;49.138;7.414;2024-01-11T05:55:34;28.70;;;12.60;;
62202;SDS011;48199;49.138;7.414;2024-01-11T05:58:00;18.13;;;10.32;;
62202;SDS011;48199;49.138;7.414;2024-01-11T06:00:26;19.50;;;9.40;;
62202;SDS011;48199;49.138;7.414;2024-01-11T06:02:51;16.98;;;9.38;;
62202;SDS011;48199;49.138;7.414;2024-01-11T06:05:17;29.90;;;12.40;;
62202;SDS011;48199;49.138;7.414;2024-01-11T06:07:42;20.58;;;10.25;;
62202;SDS011;48199;49.138;7.414;2024-01-11T06:10:07;18.02;;;9.07;;
62202;SDS011;48199;49.138;7.414;2024-01-11T06:12:34;21.02;;;11.00;;
62202;SDS011;48199;49.138;7.414;2024-01-11T06:15:02;28.05;;;11.93;;
62202;SDS011;48199;49.138;7.414;2024-01-11T06:17:28;26.48;;;11.77;;
62202;SDS011;48199;49.138;7.414;2024-01-11T06:19:53;19.50;;;9.70;;
62202;SDS011;48199;49.138;7.414;2024-01-11T06:22:19;34.60;;;12.38;;
62202;SDS011;48199;49.138;7.414;2024-01-11T06:24:45;27.42;;;11.00;;
62202;SDS011;48199;49.138;7.414;2024-01-11T06:27:10;21.02;;;10.13;;
62202;SDS011;48199;49.138;7.414;2024-01-11T06:29:35;26.25;;;11.75;;
62202;SDS011;48199;49.138;7.414;2024-01-11T06:32:01;23.40;;;11.80;;
62202;SDS011;48199;49.138;7.414;2024-01-11T06:34:27;21.25;;;11.90;;
62202;SDS011;48199;49.138;7.414;2024-01-11T06:36:53;35.13;;;12.18;;
62202;SDS011;48199;49.138;7.414;2024-01-11T06:39:19;26.40;;;13.07;;
62202;SDS011;48199;49.138;7.414;2024-01-11T06:41:44;27.40;;;12.93;;
62202;SDS011;48199;49.138;7.414;2024-01-11T06:44:10;22.27;;;10.70;;
62202;SDS011;48199;49.138;7.414;2024-01-11T06:46:35;24.33;;;11.60;;
62202;SDS011;48199;49.138;7.414;2024-01-11T06:49:01;27.67;;;11.60;;
62202;SDS011;48199;49.138;7.414;2024-01-11T06:51:27;18.63;;;11.98;;
62202;SDS011;48199;49.138;7.414;2024-01-11T06:53:52;21.77;;;10.15;;
62202;SDS011;48199;49.138;7.414;2024-01-11T06:56:18;16.45;;;8.93;;
62202;SDS011;48199;49.138;7.414;2024-01-11T06:58:45;17.88;;;9.82;;
62202;SDS011;48199;49.138;7.414;2024-01-11T07:01:11;17.05;;;8.93;;
62202;SDS011;48199;49.138;7.414;2024-01-11T07:03:37;20.05;;;10.98;;
62202;SDS011;48199;49.138;7.414;2024-01-11T07:06:03;21.05;;;10.02;;
62202;SDS011;48199;49.138;7.414;2024-01-11T07:08:29;20.23;;;9.57;;
62202;SDS011;48199;49.138;7.414;2024-01-11T07:10:55;21.92;;;11.32;;
62202;SDS011;48199;49.138;7.414;2024-01-11T07:13:20;25.38;;;9.35;;
62202;SDS011;48199;49.138;7.414;2024-01-11T07:15:46;17.08;;;9.52;;
62202;SDS011;48199;49.138;7.414;2024-01-11T07:18:13;28.70;;;11.38;;
62202;SDS011;48199;49.138;7.414;2024-01-11T07:20:38;21.75;;;11.57;;
62202;SDS011;48199;49.138;7.414;2024-01-11T07:23:04;22.20;;;10.32;;
62202;SDS011;48199;49.138;7.414;2024-01-11T07:25:29;20.17;;;9.88;;
62202;SDS011;48199;49.138;7.414;2024-01-11T07:27:55;24.67;;;10.90;;
62202;SDS011;48199;49.138;7.414;2024-01-11T07:30:20;21.05;;;10.90;;
62202;SDS011;48199;49.138;7.414;2024-01-11T07:32:46;23.33;;;13.93;;
62202;SDS011;48199;49.138;7.414;2024-01-11T07:35:11;20.15;;;9.65;;
62202;SDS011;48199;49.138;7.414;2024-01-11T07:37:38;16.88;;;11.05;;
62202;SDS011;48199;49.138;7.414;2024-01-11T07:40:04;15.68;;;9.15;;
62202;SDS011;48199;49.138;7.414;2024-01-11T07:42:35;22.58;;;11.13;;
62202;SDS011;48199;49.138;7.414;2024-01-11T07:45:00;17.40;;;9.40;;
62202;SDS011;48199;49.138;7.414;2024-01-11T07:47:26;20.38;;;11.23;;
62202;SDS011;48199;49.138;7.414;2024-01-11T07:49:51;25.10;;;11.68;;
62202;SDS011;48199;49.138;7.414;2024-01-11T07:52:17;42.20;;;17.83;;
62202;SDS011;48199;49.138;7.414;2024-01-11T07:54:42;31.88;;;16.35;;
62202;SDS011;48199;49.138;7.414;2024-01-11T07:57:07;28.25;;;13.05;;
62202;SDS011;48199;49.138;7.414;2024-01-11T07:59:33;29.63;;;12.90;;
62202;SDS011;48199;49.138;7.414;2024-01-11T08:02:00;19.13;;;10.05;;
62202;SDS011;48199;49.138;7.414;2024-01-11T08:04:26;26.83;;;14.60;;
62202;SDS011;48199;49.138;7.414;2024-01-11T08:06:52;34.90;;;14.85;;
62202;SDS011;48199;49.138;7.414;2024-01-11T08:09:17;30.45;;;13.80;;
62202;SDS011;48199;49.138;7.414;2024-01-11T08:11:43;28.80;;;13.43;;
62202;SDS011;48199;49.138;7.414;2024-01-11T08:14:08;34.47;;;13.98;;
62202;SDS011;48199;49.138;7.414;2024-01-11T08:16:34;26.67;;;13.57;;
62202;SDS011;48199;49.138;7.414;2024-01-11T08:18:59;28.80;;;13.40;;
62202;SDS011;48199;49.138;7.414;2024-01-11T08:21:25;26.13;;;13.57;;
62202;SDS011;48199;49.138;7.414;2024-01-11T08:23:51;35.40;;;14.80;;
62202;SDS011;48199;49.138;7.414;2024-01-11T08:26:17;35.10;;;14.75;;
62202;SDS011;48199;49.138;7.414;2024-01-11T08:28:43;29.05;;;13.88;;
62202;SDS011;48199;49.138;7.414;2024-01-11T08:31:09;23.10;;;11.60;;
62202;SDS011;48199;49.138;7.414;2024-01-11T08:33:35;18.15;;;9.32;;
62202;SDS011;48199;49.138;7.414;2024-01-11T08:36:02;25.77;;;11.30;;
62202;SDS011;48199;49.138;7.414;2024-01-11T08:38:28;20.75;;;11.45;;
62202;SDS011;48199;49.138;7.414;2024-01-11T08:40:54;21.30;;;11.02;;
62202;SDS011;48199;49.138;7.414;2024-01-11T08:43:20;23.20;;;11.60;;
62202;SDS011;48199;49.138;7.414;2024-01-11T08:45:45;29.05;;;14.07;;
62202;SDS011;48199;49.138;7.414;2024-01-11T08:48:12;24.65;;;12.40;;
62202;SDS011;48199;49.138;7.414;2024-01-11T08:50:37;23.67;;;12.20;;
62202;SDS011;48199;49.138;7.414;2024-01-11T08:53:03;28.45;;;13.95;;
62202;SDS011;48199;49.138;7.414;2024-01-11T08:55:28;19.75;;;11.85;;
62202;SDS011;48199;49.138;7.414;2024-01-11T08:57:53;27.88;;;13.10;;
62202;SDS011;48199;49.138;7.414;2024-01-11T09:00:19;25.80;;;13.52;;
62202;SDS011;48199;49.138;7.414;2024-01-11T09:02:44;25.05;;;12.45;;
62202;SDS011;48199;49.138;7.414;2024-01-11T09:05:10;25.65;;;13.07;;
62202;SDS011;48199;49.138;7.414;2024-01-11T09:07:36;31.92;;;14.23;;
62202;SDS011;48199;49.138;7.414;2024-01-11T09:10:02;32.78;;;15.88;;
62202;SDS011;48199;49.138;7.414;2024-01-11T09:12:28;28.83;;;13.18;;
62202;SDS011;48199;49.138;7.414;2024-01-11T09:14:53;31.88;;;14.85;;
62202;SDS011;48199;49.138;7.414;2024-01-11T09:17:19;27.45;;;14.13;;
62202;SDS011;48199;49.138;7.414;2024-01-11T09:19:45;25.90;;;12.68;;
62202;SDS011;48199;49.138;7.414;2024-01-11T09:22:10;33.20;;;15.13;;
62202;SDS011;48199;49.138;7.414;2024-01-11T09:24:36;30.75;;;15.98;;
62202;SDS011;48199;49.138;7.414;2024-01-11T09:27:02;27.85;;;14.50;;
62202;SDS011;48199;49.138;7.414;2024-01-11T09:29:29;32.10;;;15.00;;
62202;SDS011;48199;49.138;7.414;2024-01-11T09:31:54;29.90;;;14.85;;
62202;SDS011;48199;49.138;7.414;2024-01-11T09:34:20;29.52;;;14.27;;
62202;SDS011;48199;49.138;7.414;2024-01-11T09:36:45;33.88;;;14.75;;
62202;SDS011;48199;49.138;7.414;2024-01-11T09:39:10;23.25;;;13.32;;
62202;SDS011;48199;49.138;7.414;2024-01-11T09:41:38;27.35;;;15.23;;
62202;SDS011;48199;49.138;7.414;2024-01-11T09:44:08;26.92;;;13.93;;
62202;SDS011;48199;49.138;7.414;2024-01-11T09:46:34;32.80;;;14.15;;
62202;SDS011;48199;49.138;7.414;2024-01-11T09:48:59;29.50;;;14.93;;
62202;SDS011;48199;49.138;7.414;2024-01-11T09:51:26;28.08;;;14.43;;
62202;SDS011;48199;49.138;7.414;2024-01-11T09:53:54;29.10;;;14.50;;
62202;SDS011;48199;49.138;7.414;2024-01-11T09:56:20;31.30;;;15.05;;
62202;SDS011;48199;49.138;7.414;2024-01-11T09:58:46;32.53;;;15.07;;
62202;SDS011;48199;49.138;7.414;2024-01-11T10:01:15;31.88;;;13.65;;
62202;SDS011;48199;49.138;7.414;2024-01-11T10:03:42;33.05;;;14.32;;
62202;SDS011;48199;49.138;7.414;2024-01-11T10:06:08;28.67;;;13.68;;
62202;SDS011;48199;49.138;7.414;2024-01-11T10:08:35;26.38;;;12.88;;
62202;SDS011;48199;49.138;7.414;2024-01-11T10:11:01;30.85;;;14.45;;
62202;SDS011;48199;49.138;7.414;2024-01-11T10:13:28;33.47;;;14.45;;
62202;SDS011;48199;49.138;7.414;2024-01-11T10:18:33;28.35;;;14.50;;
62202;SDS011;48199;49.138;7.414;2024-01-11T10:20:58;32.20;;;13.85;;
62202;SDS011;48199;49.138;7.414;2024-01-11T10:23:24;28.48;;;13.00;;
62202;SDS011;48199;49.138;7.414;2024-01-11T10:25:49;26.88;;;13.02;;
62202;SDS011;48199;49.138;7.414;2024-01-11T10:28:14;30.05;;;12.88;;
62202;SDS011;48199;49.138;7.414;2024-01-11T10:30:47;31.33;;;13.23;;
62202;SDS011;48199;49.138;7.414;2024-01-11T10:33:13;26.73;;;13.43;;
62202;SDS011;48199;49.138;7.414;2024-01-11T10:35:38;28.58;;;13.57;;
62202;SDS011;48199;49.138;7.414;2024-01-11T10:38:05;25.80;;;12.32;;
62202;SDS011;48199;49.138;7.414;2024-01-11T10:40:34;20.67;;;12.55;;
62202;SDS011;48199;49.138;7.414;2024-01-11T10:43:01;27.60;;;12.63;;
62202;SDS011;48199;49.138;7.414;2024-01-11T10:45:29;22.70;;;12.13;;
62202;SDS011;48199;49.138;7.414;2024-01-11T10:48:03;29.00;;;12.13;;
62202;SDS011;48199;49.138;7.414;2024-01-11T10:50:41;23.52;;;12.35;;
62202;SDS011;48199;49.138;7.414;2024-01-11T10:55:34;31.17;;;13.07;;
62202;SDS011;48199;49.138;7.414;2024-01-11T10:58:00;24.90;;;13.02;;
62202;SDS011;48199;49.138;7.414;2024-01-11T11:00:27;26.50;;;14.02;;
62202;SDS011;48199;49.138;7.414;2024-01-11T11:02:53;28.45;;;13.57;;
62202;SDS011;48199;49.138;7.414;2024-01-11T11:05:19;25.50;;;12.82;;
62202;SDS011;48199;49.138;7.414;2024-01-11T11:07:47;26.83;;;13.25;;
62202;SDS011;48199;49.138;7.414;2024-01-11T11:10:14;28.38;;;13.45;;
62202;SDS011;48199;49.138;7.414;2024-01-11T11:12:43;24.38;;;12.18;;
62202;SDS011;48199;49.138;7.414;2024-01-11T11:15:10;30.77;;;13.70;;
62202;SDS011;48199;49.138;7.414;2024-01-11T11:17:37;27.75;;;13.52;;
62202;SDS011;48199;49.138;7.414;2024-01-11T11:20:05;28.15;;;13.80;;
62202;SDS011;48199;49.138;7.414;2024-01-11T11:22:33;26.98;;;12.77;;
62202;SDS011;48199;49.138;7.414;2024-01-11T11:25:02;26.70;;;12.50;;
62202;SDS011;48199;49.138;7.414;2024-01-11T11:27:30;31.40;;;13.85;;
62202;SDS011;48199;49.138;7.414;2024-01-11T11:29:56;27.77;;;13.48;;
62202;SDS011;48199;49.138;7.414;2024-01-11T11:32:34;24.23;;;12.32;;
62202;SDS011;48199;49.138;7.414;2024-01-11T11:35:03;29.75;;;14.02;;
62202;SDS011;48199;49.138;7.414;2024-01-11T11:37:30;29.88;;;14.27;;
62202;SDS011;48199;49.138;7.414;2024-01-11T11:39:57;29.33;;;12.77;;
62202;SDS011;48199;49.138;7.414;2024-01-11T11:42:23;26.45;;;12.68;;
62202;SDS011;48199;49.138;7.414;2024-01-11T11:44:50;26.13;;;13.50;;
62202;SDS011;48199;49.138;7.414;2024-01-11T11:47:22;33.08;;;13.27;;
62202;SDS011;48199;49.138;7.414;2024-01-11T11:52:29;27.58;;;12.75;;
62202;SDS011;48199;49.138;7.414;2024-01-11T11:54:57;27.55;;;12.95;;
62202;SDS011;48199;49.138;7.414;2024-01-11T11:57:24;22.98;;;11.23;;
62202;SDS011;48199;49.138;7.414;2024-01-11T11:59:49;25.60;;;13.98;;
62202;SDS011;48199;49.138;7.414;2024-01-11T12:02:27;35.10;;;14.25;;
62202;SDS011;48199;49.138;7.414;2024-01-11T12:04:53;30.10;;;14.48;;
62202;SDS011;48199;49.138;7.414;2024-01-11T12:07:20;26.65;;;12.25;;
62202;SDS011;48199;49.138;7.414;2024-01-11T12:09:46;23.75;;;12.60;;
62202;SDS011;48199;49.138;7.414;2024-01-11T12:12:12;26.90;;;13.07;;
62202;SDS011;48199;49.138;7.414;2024-01-11T12:14:38;24.20;;;13.00;;
62202;SDS011;48199;49.138;7.414;2024-01-11T12:17:05;29.67;;;13.07;;
62202;SDS011;48199;49.138;7.414;2024-01-11T12:19:31;26.95;;;13.07;;
62202;SDS011;48199;49.138;7.414;2024-01-11T12:21:57;24.70;;;12.27;;
62202;SDS011;48199;49.138;7.414;2024-01-11T12:24:23;28.90;;;13.20;;
62202;SDS011;48199;49.138;7.414;2024-01-11T12:26:49;29.88;;;13.48;;
62202;SDS011;48199;49.138;7.414;2024-01-11T12:29:18;29.58;;;13.18;;
62202;SDS011;48199;49.138;7.414;2024-01-11T12:31:44;26.67;;;12.25;;
62202;SDS011;48199;49.138;7.414;2024-01-11T12:34:11;23.42;;;12.10;;
62202;SDS011;48199;49.138;7.414;2024-01-11T12:36:37;27.30;;;12.82;;
62202;SDS011;48199;49.138;7.414;2024-01-11T12:39:03;30.27;;;13.43;;
62202;SDS011;48199;49.138;7.414;2024-01-11T12:41:31;30.10;;;12.55;;
62202;SDS011;48199;49.138;7.414;2024-01-11T12:43:57;27.08;;;11.82;;
62202;SDS011;48199;49.138;7.414;2024-01-11T12:46:23;31.48;;;14.23;;
62202;SDS011;48199;49.138;7.414;2024-01-11T12:48:48;28.27;;;11.82;;
62202;SDS011;48199;49.138;7.414;2024-01-11T12:51:15;25.02;;;12.27;;
62202;SDS011;48199;49.138;7.414;2024-01-11T12:53:42;25.23;;;13.38;;
62202;SDS011;48199;49.138;7.414;2024-01-11T12:56:10;26.45;;;12.32;;
62202;SDS011;48199;49.138;7.414;2024-01-11T12:58:36;28.27;;;13.38;;
62202;SDS011;48199;49.138;7.414;2024-01-11T13:01:03;25.63;;;12.57;;
62202;SDS011;48199;49.138;7.414;2024-01-11T13:03:29;26.02;;;12.52;;
62202;SDS011;48199;49.138;7.414;2024-01-11T13:05:55;25.17;;;12.63;;
62202;SDS011;48199;49.138;7.414;2024-01-11T13:08:21;28.60;;;13.48;;
62202;SDS011;48199;49.138;7.414;2024-01-11T13:10:47;23.83;;;11.85;;
62202;SDS011;48199;49.138;7.414;2024-01-11T13:13:15;22.80;;;11.32;;
62202;SDS011;48199;49.138;7.414;2024-01-11T13:15:41;28.23;;;12.48;;
62202;SDS011;48199;49.138;7.414;2024-01-11T13:18:06;31.10;;;12.98;;
62202;SDS011;48199;49.138;7.414;2024-01-11T13:20:32;22.95;;;12.75;;
62202;SDS011;48199;49.138;7.414;2024-01-11T13:23:16;28.27;;;12.55;;
62202;SDS011;48199;49.138;7.414;2024-01-11T13:25:45;19.05;;;10.82;;
62202;SDS011;48199;49.138;7.414;2024-01-11T13:28:11;24.08;;;11.32;;
62202;SDS011;48199;49.138;7.414;2024-01-11T13:30:37;23.75;;;11.65;;
62202;SDS011;48199;49.138;7.414;2024-01-11T13:33:04;29.88;;;13.40;;
62202;SDS011;48199;49.138;7.414;2024-01-11T13:35:30;24.02;;;11.13;;
62202;SDS011;48199;49.138;7.414;2024-01-11T13:37:56;23.23;;;12.18;;
62202;SDS011;48199;49.138;7.414;2024-01-11T13:40:21;27.25;;;12.15;;
62202;SDS011;48199;49.138;7.414;2024-01-11T13:42:47;23.95;;;11.95;;
62202;SDS011;48199;49.138;7.414;2024-01-11T13:45:12;26.77;;;12.15;;
62202;SDS011;48199;49.138;7.414;2024-01-11T13:47:38;26.40;;;11.90;;
62202;SDS011;48199;49.138;7.414;2024-01-11T13:50:03;25.20;;;12.10;;
62202;SDS011;48199;49.138;7.414;2024-01-11T13:52:29;24.98;;;11.88;;
62202;SDS011;48199;49.138;7.414;2024-01-11T13:54:55;22.23;;;11.15;;
62202;SDS011;48199;49.138;7.414;2024-01-11T13:57:20;22.35;;;11.70;;
62202;SDS011;48199;49.138;7.414;2024-01-11T13:59:46;25.10;;;11.93;;
62202;SDS011;48199;49.138;7.414;2024-01-11T14:02:12;26.92;;;12.05;;
62202;SDS011;48199;49.138;7.414;2024-01-11T14:04:37;21.70;;;11.35;;
62202;SDS011;48199;49.138;7.414;2024-01-11T14:07:04;26.63;;;11.38;;
62202;SDS011;48199;49.138;7.414;2024-01-11T14:09:30;21.20;;;11.55;;
62202;SDS011;48199;49.138;7.414;2024-01-11T14:11:55;22.48;;;11.50;;
62202;SDS011;48199;49.138;7.414;2024-01-11T14:14:20;21.52;;;11.55;;
62202;SDS011;48199;49.138;7.414;2024-01-11T14:16:46;23.42;;;12.48;;
62202;SDS011;48199;49.138;7.414;2024-01-11T14:19:12;27.25;;;11.50;;
62202;SDS011;48199;49.138;7.414;2024-01-11T14:21:38;20.70;;;11.50;;
62202;SDS011;48199;49.138;7.414;2024-01-11T14:24:04;24.38;;;11.75;;
62202;SDS011;48199;49.138;7.414;2024-01-11T14:26:30;21.98;;;10.55;;